Anchorage/Lake Hood Seaplane Base, Alaska
Current Conditions -  °F | °C
As of 3:53 AM on Saturday 22 Nov 2014 (Local Time) from PALH Reporting Station
Few Clouds Few Clouds  
Wind Chill: -3°   Ceiling: Unl
Heat Index:   Visibility: 10mi
Dew Point: -6°   Wind: 6mph
Humidity: 66%   Direction: 50°NE
Pressure: 29.05"   Gusts: NA
Location:  61.18°N, 149.97°W
Report Text: PALH 221253Z 05005KT 10SM FEW110 00/M06 A2905 RMK AO2 SLP837 T00001056
Loading
Personal Weather Stations






























Interactive Weather Map New forecast layout! Learn more

10-Day Weather Forecast

Advertisements
Track Severe Weather on mobile